sensor_id;sensor_type;location;lat;lon;timestamp;P1;durP1;ratioP1;P2;durP2;ratioP2
5900;SDS011;2976;49.764;9.796;2023-08-12T00:00:56;4.80;;;2.90;;
5900;SDS011;2976;49.764;9.796;2023-08-12T00:03:22;6.00;;;3.73;;
5900;SDS011;2976;49.764;9.796;2023-08-12T00:05:47;9.33;;;2.70;;
5900;SDS011;2976;49.764;9.796;2023-08-12T00:08:13;3.60;;;3.30;;
5900;SDS011;2976;49.764;9.796;2023-08-12T00:10:38;2.50;;;2.33;;
5900;SDS011;2976;49.764;9.796;2023-08-12T00:13:04;4.73;;;3.50;;
5900;SDS011;2976;49.764;9.796;2023-08-12T00:15:29;4.20;;;2.87;;
5900;SDS011;2976;49.764;9.796;2023-08-12T00:17:55;7.33;;;2.90;;
5900;SDS011;2976;49.764;9.796;2023-08-12T00:20:21;2.67;;;2.47;;
5900;SDS011;2976;49.764;9.796;2023-08-12T00:22:46;3.47;;;3.00;;
5900;SDS011;2976;49.764;9.796;2023-08-12T00:25:12;8.90;;;2.63;;
5900;SDS011;2976;49.764;9.796;2023-08-12T00:27:37;2.80;;;2.40;;
5900;SDS011;2976;49.764;9.796;2023-08-12T00:30:03;7.23;;;2.70;;
5900;SDS011;2976;49.764;9.796;2023-08-12T00:32:30;8.57;;;2.87;;
5900;SDS011;2976;49.764;9.796;2023-08-12T00:34:55;3.20;;;2.50;;
5900;SDS011;2976;49.764;9.796;2023-08-12T00:37:21;7.23;;;2.57;;
5900;SDS011;2976;49.764;9.796;2023-08-12T00:39:47;3.37;;;3.07;;
5900;SDS011;2976;49.764;9.796;2023-08-12T00:42:12;4.43;;;2.17;;
5900;SDS011;2976;49.764;9.796;2023-08-12T00:44:38;3.20;;;2.90;;
5900;SDS011;2976;49.764;9.796;2023-08-12T00:47:03;6.33;;;2.80;;
5900;SDS011;2976;49.764;9.796;2023-08-12T00:49:29;2.87;;;2.67;;
5900;SDS011;2976;49.764;9.796;2023-08-12T00:51:57;3.83;;;3.53;;
5900;SDS011;2976;49.764;9.796;2023-08-12T00:54:24;6.13;;;2.27;;
5900;SDS011;2976;49.764;9.796;2023-08-12T00:56:50;3.20;;;2.90;;
5900;SDS011;2976;49.764;9.796;2023-08-12T00:59:18;3.30;;;3.00;;
5900;SDS011;2976;49.764;9.796;2023-08-12T01:01:45;9.57;;;2.90;;
5900;SDS011;2976;49.764;9.796;2023-08-12T01:04:12;3.87;;;3.20;;
5900;SDS011;2976;49.764;9.796;2023-08-12T01:06:37;7.07;;;2.63;;
5900;SDS011;2976;49.764;9.796;2023-08-12T01:09:04;5.13;;;3.07;;
5900;SDS011;2976;49.764;9.796;2023-08-12T01:14:15;7.03;;;3.00;;
5900;SDS011;2976;49.764;9.796;2023-08-12T01:16:47;6.03;;;3.33;;
5900;SDS011;2976;49.764;9.796;2023-08-12T01:19:38;4.77;;;2.60;;
5900;SDS011;2976;49.764;9.796;2023-08-12T01:22:03;3.40;;;3.10;;
5900;SDS011;2976;49.764;9.796;2023-08-12T01:24:38;6.90;;;2.80;;
5900;SDS011;2976;49.764;9.796;2023-08-12T01:27:05;5.30;;;2.77;;
5900;SDS011;2976;49.764;9.796;2023-08-12T01:29:33;4.23;;;3.03;;
5900;SDS011;2976;49.764;9.796;2023-08-12T01:32:14;4.53;;;2.50;;
5900;SDS011;2976;49.764;9.796;2023-08-12T01:35:17;4.53;;;2.97;;
5900;SDS011;2976;49.764;9.796;2023-08-12T01:37:48;2.67;;;2.47;;
5900;SDS011;2976;49.764;9.796;2023-08-12T01:40:16;4.13;;;2.83;;
5900;SDS011;2976;49.764;9.796;2023-08-12T01:42:44;11.67;;;2.83;;
5900;SDS011;2976;49.764;9.796;2023-08-12T01:45:10;7.93;;;3.23;;
5900;SDS011;2976;49.764;9.796;2023-08-12T01:47:36;6.93;;;3.70;;
5900;SDS011;2976;49.764;9.796;2023-08-12T01:50:02;10.60;;;3.30;;
5900;SDS011;2976;49.764;9.796;2023-08-12T01:52:28;4.73;;;2.60;;
5900;SDS011;2976;49.764;9.796;2023-08-12T01:54:54;3.73;;;3.10;;
5900;SDS011;2976;49.764;9.796;2023-08-12T01:57:19;6.33;;;3.23;;
5900;SDS011;2976;49.764;9.796;2023-08-12T01:59:45;3.80;;;3.30;;
5900;SDS011;2976;49.764;9.796;2023-08-12T02:02:10;4.60;;;3.10;;
5900;SDS011;2976;49.764;9.796;2023-08-12T02:04:37;6.77;;;2.30;;
5900;SDS011;2976;49.764;9.796;2023-08-12T02:07:03;3.63;;;2.53;;
5900;SDS011;2976;49.764;9.796;2023-08-12T02:09:29;7.93;;;2.67;;
5900;SDS011;2976;49.764;9.796;2023-08-12T02:11:55;3.97;;;3.17;;
5900;SDS011;2976;49.764;9.796;2023-08-12T02:14:21;5.53;;;3.53;;
5900;SDS011;2976;49.764;9.796;2023-08-12T02:16:47;8.23;;;3.00;;
5900;SDS011;2976;49.764;9.796;2023-08-12T02:19:12;4.10;;;3.70;;
5900;SDS011;2976;49.764;9.796;2023-08-12T02:21:38;4.70;;;3.03;;
5900;SDS011;2976;49.764;9.796;2023-08-12T02:24:03;8.43;;;2.70;;
5900;SDS011;2976;49.764;9.796;2023-08-12T02:26:29;8.70;;;3.07;;
5900;SDS011;2976;49.764;9.796;2023-08-12T02:28:55;9.37;;;3.43;;
5900;SDS011;2976;49.764;9.796;2023-08-12T02:31:21;6.53;;;2.47;;
5900;SDS011;2976;49.764;9.796;2023-08-12T02:33:46;2.83;;;2.27;;
5900;SDS011;2976;49.764;9.796;2023-08-12T02:36:12;7.10;;;2.40;;
5900;SDS011;2976;49.764;9.796;2023-08-12T02:38:37;14.00;;;2.73;;
5900;SDS011;2976;49.764;9.796;2023-08-12T02:41:03;4.20;;;2.77;;
5900;SDS011;2976;49.764;9.796;2023-08-12T02:43:28;5.23;;;3.20;;
5900;SDS011;2976;49.764;9.796;2023-08-12T02:45:54;4.43;;;3.30;;
5900;SDS011;2976;49.764;9.796;2023-08-12T02:48:20;3.30;;;3.10;;
5900;SDS011;2976;49.764;9.796;2023-08-12T02:50:46;9.87;;;3.03;;
5900;SDS011;2976;49.764;9.796;2023-08-12T02:53:11;9.67;;;3.20;;
5900;SDS011;2976;49.764;9.796;2023-08-12T02:55:37;4.33;;;3.90;;
5900;SDS011;2976;49.764;9.796;2023-08-12T02:58:03;3.60;;;3.20;;
5900;SDS011;2976;49.764;9.796;2023-08-12T03:00:29;5.13;;;3.10;;
5900;SDS011;2976;49.764;9.796;2023-08-12T03:02:55;4.37;;;3.10;;
5900;SDS011;2976;49.764;9.796;2023-08-12T03:05:21;5.70;;;3.07;;
5900;SDS011;2976;49.764;9.796;2023-08-12T03:07:48;8.53;;;3.30;;
5900;SDS011;2976;49.764;9.796;2023-08-12T03:10:14;4.60;;;3.07;;
5900;SDS011;2976;49.764;9.796;2023-08-12T03:12:39;6.00;;;3.10;;
5900;SDS011;2976;49.764;9.796;2023-08-12T03:15:06;5.90;;;3.80;;
5900;SDS011;2976;49.764;9.796;2023-08-12T03:17:32;13.87;;;2.80;;
5900;SDS011;2976;49.764;9.796;2023-08-12T03:19:58;4.20;;;3.00;;
5900;SDS011;2976;49.764;9.796;2023-08-12T03:22:29;3.50;;;3.20;;
5900;SDS011;2976;49.764;9.796;2023-08-12T03:24:55;10.23;;;2.90;;
5900;SDS011;2976;49.764;9.796;2023-08-12T03:27:21;8.90;;;2.80;;
5900;SDS011;2976;49.764;9.796;2023-08-12T03:29:46;3.63;;;3.00;;
5900;SDS011;2976;49.764;9.796;2023-08-12T03:32:12;6.93;;;2.80;;
5900;SDS011;2976;49.764;9.796;2023-08-12T03:34:38;5.37;;;3.43;;
5900;SDS011;2976;49.764;9.796;2023-08-12T03:37:04;5.73;;;3.13;;
5900;SDS011;2976;49.764;9.796;2023-08-12T03:39:29;6.07;;;3.20;;
5900;SDS011;2976;49.764;9.796;2023-08-12T03:41:55;3.20;;;2.87;;
5900;SDS011;2976;49.764;9.796;2023-08-12T03:44:20;4.50;;;3.03;;
5900;SDS011;2976;49.764;9.796;2023-08-12T03:46:46;5.77;;;3.53;;
5900;SDS011;2976;49.764;9.796;2023-08-12T03:49:12;7.93;;;3.80;;
5900;SDS011;2976;49.764;9.796;2023-08-12T03:51:37;5.37;;;3.70;;
5900;SDS011;2976;49.764;9.796;2023-08-12T03:54:03;8.30;;;3.40;;
5900;SDS011;2976;49.764;9.796;2023-08-12T03:56:29;8.00;;;4.20;;
5900;SDS011;2976;49.764;9.796;2023-08-12T03:58:55;4.33;;;3.70;;
5900;SDS011;2976;49.764;9.796;2023-08-12T04:01:20;4.80;;;3.50;;
5900;SDS011;2976;49.764;9.796;2023-08-12T04:03:46;9.97;;;3.57;;
5900;SDS011;2976;49.764;9.796;2023-08-12T04:06:12;8.90;;;3.57;;
5900;SDS011;2976;49.764;9.796;2023-08-12T04:08:38;6.73;;;4.03;;
5900;SDS011;2976;49.764;9.796;2023-08-12T04:11:03;8.00;;;3.70;;
5900;SDS011;2976;49.764;9.796;2023-08-12T04:13:29;4.10;;;3.23;;
5900;SDS011;2976;49.764;9.796;2023-08-12T04:15:55;5.73;;;3.83;;
5900;SDS011;2976;49.764;9.796;2023-08-12T04:18:20;4.37;;;3.40;;
5900;SDS011;2976;49.764;9.796;2023-08-12T04:20:47;6.73;;;3.50;;
5900;SDS011;2976;49.764;9.796;2023-08-12T04:23:14;6.13;;;3.53;;
5900;SDS011;2976;49.764;9.796;2023-08-12T04:25:42;6.03;;;3.50;;
5900;SDS011;2976;49.764;9.796;2023-08-12T04:28:10;5.30;;;3.80;;
5900;SDS011;2976;49.764;9.796;2023-08-12T04:30:36;8.70;;;3.60;;
5900;SDS011;2976;49.764;9.796;2023-08-12T04:33:07;4.00;;;3.70;;
5900;SDS011;2976;49.764;9.796;2023-08-12T04:35:33;5.50;;;4.00;;
5900;SDS011;2976;49.764;9.796;2023-08-12T04:37:59;5.37;;;3.50;;
5900;SDS011;2976;49.764;9.796;2023-08-12T04:40:24;7.30;;;4.40;;
5900;SDS011;2976;49.764;9.796;2023-08-12T04:42:50;3.83;;;3.43;;
5900;SDS011;2976;49.764;9.796;2023-08-12T04:45:15;7.77;;;4.10;;
5900;SDS011;2976;49.764;9.796;2023-08-12T04:47:41;6.40;;;3.50;;
5900;SDS011;2976;49.764;9.796;2023-08-12T04:50:07;3.37;;;3.03;;
5900;SDS011;2976;49.764;9.796;2023-08-12T04:52:33;6.30;;;3.50;;
5900;SDS011;2976;49.764;9.796;2023-08-12T04:54:58;8.33;;;3.27;;
5900;SDS011;2976;49.764;9.796;2023-08-12T04:57:25;6.97;;;3.90;;
5900;SDS011;2976;49.764;9.796;2023-08-12T04:59:50;4.73;;;3.50;;
5900;SDS011;2976;49.764;9.796;2023-08-12T05:02:16;10.27;;;3.73;;
5900;SDS011;2976;49.764;9.796;2023-08-12T05:04:46;4.47;;;3.47;;
5900;SDS011;2976;49.764;9.796;2023-08-12T05:07:13;5.10;;;4.20;;
5900;SDS011;2976;49.764;9.796;2023-08-12T05:09:39;4.30;;;3.87;;
5900;SDS011;2976;49.764;9.796;2023-08-12T05:12:05;7.07;;;3.90;;
5900;SDS011;2976;49.764;9.796;2023-08-12T05:14:30;7.27;;;3.57;;
5900;SDS011;2976;49.764;9.796;2023-08-12T05:16:56;9.73;;;3.47;;
5900;SDS011;2976;49.764;9.796;2023-08-12T05:19:21;10.93;;;4.40;;
5900;SDS011;2976;49.764;9.796;2023-08-12T05:21:47;9.43;;;4.53;;
5900;SDS011;2976;49.764;9.796;2023-08-12T05:24:13;8.60;;;3.93;;
5900;SDS011;2976;49.764;9.796;2023-08-12T05:26:38;4.90;;;4.20;;
5900;SDS011;2976;49.764;9.796;2023-08-12T05:29:04;4.60;;;4.03;;
5900;SDS011;2976;49.764;9.796;2023-08-12T05:31:29;9.27;;;4.40;;
5900;SDS011;2976;49.764;9.796;2023-08-12T05:33:56;6.60;;;4.57;;
5900;SDS011;2976;49.764;9.796;2023-08-12T05:36:21;7.00;;;4.00;;
5900;SDS011;2976;49.764;9.796;2023-08-12T05:38:47;6.80;;;5.23;;
5900;SDS011;2976;49.764;9.796;2023-08-12T05:41:12;12.90;;;4.03;;
5900;SDS011;2976;49.764;9.796;2023-08-12T05:43:38;10.07;;;4.80;;
5900;SDS011;2976;49.764;9.796;2023-08-12T05:46:04;5.83;;;4.57;;
5900;SDS011;2976;49.764;9.796;2023-08-12T05:48:29;4.53;;;4.23;;
5900;SDS011;2976;49.764;9.796;2023-08-12T05:50:55;9.93;;;4.10;;
5900;SDS011;2976;49.764;9.796;2023-08-12T05:53:21;8.23;;;4.17;;
5900;SDS011;2976;49.764;9.796;2023-08-12T05:55:47;6.03;;;4.00;;
5900;SDS011;2976;49.764;9.796;2023-08-12T05:58:13;6.10;;;3.97;;
5900;SDS011;2976;49.764;9.796;2023-08-12T06:00:38;6.90;;;4.60;;
5900;SDS011;2976;49.764;9.796;2023-08-12T06:03:04;7.90;;;4.43;;
5900;SDS011;2976;49.764;9.796;2023-08-12T06:05:29;7.87;;;4.57;;
5900;SDS011;2976;49.764;9.796;2023-08-12T06:07:55;6.63;;;4.37;;
5900;SDS011;2976;49.764;9.796;2023-08-12T06:10:20;8.03;;;4.10;;
5900;SDS011;2976;49.764;9.796;2023-08-12T06:12:46;8.13;;;4.03;;
5900;SDS011;2976;49.764;9.796;2023-08-12T06:15:11;4.60;;;4.07;;
5900;SDS011;2976;49.764;9.796;2023-08-12T06:17:37;7.73;;;4.10;;
5900;SDS011;2976;49.764;9.796;2023-08-12T06:20:03;6.33;;;4.13;;
5900;SDS011;2976;49.764;9.796;2023-08-12T06:22:29;6.13;;;3.50;;
5900;SDS011;2976;49.764;9.796;2023-08-12T06:24:54;11.37;;;4.10;;
5900;SDS011;2976;49.764;9.796;2023-08-12T06:27:20;6.23;;;4.23;;
5900;SDS011;2976;49.764;9.796;2023-08-12T06:29:45;5.70;;;3.60;;
5900;SDS011;2976;49.764;9.796;2023-08-12T06:32:11;6.50;;;3.80;;
5900;SDS011;2976;49.764;9.796;2023-08-12T06:34:39;5.83;;;3.97;;
5900;SDS011;2976;49.764;9.796;2023-08-12T06:37:05;3.97;;;3.40;;
5900;SDS011;2976;49.764;9.796;2023-08-12T06:39:31;3.40;;;3.00;;
5900;SDS011;2976;49.764;9.796;2023-08-12T06:41:56;7.10;;;3.53;;
5900;SDS011;2976;49.764;9.796;2023-08-12T06:44:23;6.90;;;2.97;;
5900;SDS011;2976;49.764;9.796;2023-08-12T06:46:49;6.53;;;3.03;;
5900;SDS011;2976;49.764;9.796;2023-08-12T06:49:15;3.30;;;3.00;;
5900;SDS011;2976;49.764;9.796;2023-08-12T06:51:41;5.07;;;3.10;;
5900;SDS011;2976;49.764;9.796;2023-08-12T06:54:06;8.20;;;3.33;;
5900;SDS011;2976;49.764;9.796;2023-08-12T06:56:32;6.00;;;2.70;;
5900;SDS011;2976;49.764;9.796;2023-08-12T06:58:57;4.33;;;2.97;;
5900;SDS011;2976;49.764;9.796;2023-08-12T07:01:23;5.07;;;3.17;;
5900;SDS011;2976;49.764;9.796;2023-08-12T07:03:48;11.43;;;2.80;;
5900;SDS011;2976;49.764;9.796;2023-08-12T07:06:14;3.60;;;2.87;;
5900;SDS011;2976;49.764;9.796;2023-08-12T07:08:40;7.97;;;2.83;;
5900;SDS011;2976;49.764;9.796;2023-08-12T07:11:05;6.77;;;3.07;;
5900;SDS011;2976;49.764;9.796;2023-08-12T07:13:31;7.93;;;3.27;;
5900;SDS011;2976;49.764;9.796;2023-08-12T07:15:58;5.43;;;3.20;;
5900;SDS011;2976;49.764;9.796;2023-08-12T07:18:23;5.63;;;3.30;;
5900;SDS011;2976;49.764;9.796;2023-08-12T07:20:49;7.90;;;3.10;;
5900;SDS011;2976;49.764;9.796;2023-08-12T07:23:15;4.30;;;3.50;;
5900;SDS011;2976;49.764;9.796;2023-08-12T07:25:41;5.90;;;3.37;;
5900;SDS011;2976;49.764;9.796;2023-08-12T07:28:06;8.70;;;3.40;;
5900;SDS011;2976;49.764;9.796;2023-08-12T07:30:33;11.27;;;3.40;;
5900;SDS011;2976;49.764;9.796;2023-08-12T07:33:01;4.80;;;2.80;;
5900;SDS011;2976;49.764;9.796;2023-08-12T07:35:26;3.90;;;3.13;;
5900;SDS011;2976;49.764;9.796;2023-08-12T07:37:52;5.40;;;2.50;;
5900;SDS011;2976;49.764;9.796;2023-08-12T07:40:17;11.97;;;3.20;;
5900;SDS011;2976;49.764;9.796;2023-08-12T07:42:43;7.20;;;3.13;;
5900;SDS011;2976;49.764;9.796;2023-08-12T07:45:08;5.43;;;3.07;;
5900;SDS011;2976;49.764;9.796;2023-08-12T07:47:34;4.23;;;3.37;;
5900;SDS011;2976;49.764;9.796;2023-08-12T07:50:00;6.13;;;3.03;;
5900;SDS011;2976;49.764;9.796;2023-08-12T07:52:25;7.57;;;2.97;;
5900;SDS011;2976;49.764;9.796;2023-08-12T07:54:51;3.03;;;2.60;;
5900;SDS011;2976;49.764;9.796;2023-08-12T07:57:16;3.83;;;3.50;;
5900;SDS011;2976;49.764;9.796;2023-08-12T07:59:42;3.03;;;2.83;;
5900;SDS011;2976;49.764;9.796;2023-08-12T08:02:08;5.53;;;2.93;;
5900;SDS011;2976;49.764;9.796;2023-08-12T08:04:34;4.23;;;3.70;;
5900;SDS011;2976;49.764;9.796;2023-08-12T08:06:59;5.83;;;2.90;;
5900;SDS011;2976;49.764;9.796;2023-08-12T08:09:25;7.13;;;3.17;;
5900;SDS011;2976;49.764;9.796;2023-08-12T08:11:51;5.07;;;3.00;;
5900;SDS011;2976;49.764;9.796;2023-08-12T08:14:16;4.90;;;2.90;;
5900;SDS011;2976;49.764;9.796;2023-08-12T08:16:42;4.97;;;2.80;;
5900;SDS011;2976;49.764;9.796;2023-08-12T08:19:08;9.33;;;3.27;;
5900;SDS011;2976;49.764;9.796;2023-08-12T08:21:34;8.70;;;2.60;;
5900;SDS011;2976;49.764;9.796;2023-08-12T08:24:01;3.10;;;2.90;;
5900;SDS011;2976;49.764;9.796;2023-08-12T08:26:26;10.43;;;2.70;;
5900;SDS011;2976;49.764;9.796;2023-08-12T08:28:52;10.53;;;2.37;;
5900;SDS011;2976;49.764;9.796;2023-08-12T08:31:17;2.70;;;2.23;;
5900;SDS011;2976;49.764;9.796;2023-08-12T08:33:43;4.10;;;2.70;;
5900;SDS011;2976;49.764;9.796;2023-08-12T08:36:08;3.97;;;3.00;;
5900;SDS011;2976;49.764;9.796;2023-08-12T08:38:34;4.10;;;2.93;;
5900;SDS011;2976;49.764;9.796;2023-08-12T08:40:59;3.17;;;2.87;;
5900;SDS011;2976;49.764;9.796;2023-08-12T08:43:26;6.17;;;3.50;;
5900;SDS011;2976;49.764;9.796;2023-08-12T08:45:53;5.47;;;3.23;;
5900;SDS011;2976;49.764;9.796;2023-08-12T08:48:19;2.73;;;2.60;;
5900;SDS011;2976;49.764;9.796;2023-08-12T08:50:46;3.80;;;2.63;;
5900;SDS011;2976;49.764;9.796;2023-08-12T08:53:13;3.00;;;2.77;;
5900;SDS011;2976;49.764;9.796;2023-08-12T08:55:40;3.40;;;3.07;;
5900;SDS011;2976;49.764;9.796;2023-08-12T08:58:06;7.33;;;2.80;;
5900;SDS011;2976;49.764;9.796;2023-08-12T09:00:32;4.67;;;3.43;;
5900;SDS011;2976;49.764;9.796;2023-08-12T09:02:57;8.03;;;3.17;;
5900;SDS011;2976;49.764;9.796;2023-08-12T09:05:23;3.13;;;2.93;;
5900;SDS011;2976;49.764;9.796;2023-08-12T09:07:50;3.70;;;3.23;;
5900;SDS011;2976;49.764;9.796;2023-08-12T09:10:17;6.00;;;3.03;;
5900;SDS011;2976;49.764;9.796;2023-08-12T09:12:46;10.83;;;3.30;;
5900;SDS011;2976;49.764;9.796;2023-08-12T09:15:12;6.40;;;3.37;;
5900;SDS011;2976;49.764;9.796;2023-08-12T09:17:38;5.97;;;3.43;;
5900;SDS011;2976;49.764;9.796;2023-08-12T09:20:03;3.10;;;2.90;;
5900;SDS011;2976;49.764;9.796;2023-08-12T09:22:36;7.30;;;3.50;;
5900;SDS011;2976;49.764;9.796;2023-08-12T09:25:02;5.43;;;3.37;;
5900;SDS011;2976;49.764;9.796;2023-08-12T09:27:30;4.47;;;3.17;;
5900;SDS011;2976;49.764;9.796;2023-08-12T09:29:56;5.20;;;3.87;;
5900;SDS011;2976;49.764;9.796;2023-08-12T09:32:22;9.73;;;3.30;;
5900;SDS011;2976;49.764;9.796;2023-08-12T09:34:50;3.23;;;3.03;;
5900;SDS011;2976;49.764;9.796;2023-08-12T09:37:19;3.47;;;2.77;;
5900;SDS011;2976;49.764;9.796;2023-08-12T09:39:46;3.77;;;3.43;;
5900;SDS011;2976;49.764;9.796;2023-08-12T09:42:13;3.63;;;3.33;;
5900;SDS011;2976;49.764;9.796;2023-08-12T09:44:40;5.37;;;3.70;;
5900;SDS011;2976;49.764;9.796;2023-08-12T09:47:06;4.90;;;3.90;;
5900;SDS011;2976;49.764;9.796;2023-08-12T09:49:36;3.37;;;2.93;;
5900;SDS011;2976;49.764;9.796;2023-08-12T09:52:03;4.43;;;4.03;;
5900;SDS011;2976;49.764;9.796;2023-08-12T09:54:32;6.40;;;3.23;;
5900;SDS011;2976;49.764;9.796;2023-08-12T09:57:01;3.70;;;3.40;;
5900;SDS011;2976;49.764;9.796;2023-08-12T09:59:32;5.47;;;3.10;;
5900;SDS011;2976;49.764;9.796;2023-08-12T10:02:02;3.37;;;3.07;;
5900;SDS011;2976;49.764;9.796;2023-08-12T10:04:34;4.30;;;3.07;;
5900;SDS011;2976;49.764;9.796;2023-08-12T10:07:10;4.20;;;3.47;;
5900;SDS011;2976;49.764;9.796;2023-08-12T10:09:37;5.37;;;3.93;;
5900;SDS011;2976;49.764;9.796;2023-08-12T10:12:04;3.80;;;3.00;;
5900;SDS011;2976;49.764;9.796;2023-08-12T10:14:31;4.20;;;3.80;;
5900;SDS011;2976;49.764;9.796;2023-08-12T10:16:58;4.47;;;3.30;;
5900;SDS011;2976;49.764;9.796;2023-08-12T10:19:24;5.00;;;3.63;;
5900;SDS011;2976;49.764;9.796;2023-08-12T10:21:50;6.63;;;3.40;;
5900;SDS011;2976;49.764;9.796;2023-08-12T10:24:22;5.10;;;3.40;;
5900;SDS011;2976;49.764;9.796;2023-08-12T10:26:49;3.40;;;3.13;;
5900;SDS011;2976;49.764;9.796;2023-08-12T10:29:16;3.50;;;3.20;;
5900;SDS011;2976;49.764;9.796;2023-08-12T10:31:42;5.33;;;3.43;;
5900;SDS011;2976;49.764;9.796;2023-08-12T10:34:17;4.93;;;3.43;;
5900;SDS011;2976;49.764;9.796;2023-08-12T10:36:47;3.73;;;3.03;;
5900;SDS011;2976;49.764;9.796;2023-08-12T10:39:13;3.33;;;3.03;;
5900;SDS011;2976;49.764;9.796;2023-08-12T10:41:39;3.00;;;2.80;;
5900;SDS011;2976;49.764;9.796;2023-08-12T10:44:16;3.60;;;3.13;;
5900;SDS011;2976;49.764;9.796;2023-08-12T10:46:49;3.70;;;3.20;;
5900;SDS011;2976;49.764;9.796;2023-08-12T10:49:16;6.53;;;3.33;;
5900;SDS011;2976;49.764;9.796;2023-08-12T10:51:53;5.07;;;3.60;;
5900;SDS011;2976;49.764;9.796;2023-08-12T10:54:23;4.13;;;2.80;;
5900;SDS011;2976;49.764;9.796;2023-08-12T10:57:06;9.93;;;3.10;;
5900;SDS011;2976;49.764;9.796;2023-08-12T11:02:18;4.00;;;2.67;;
5900;SDS011;2976;49.764;9.796;2023-08-12T11:04:51;3.00;;;2.80;;
5900;SDS011;2976;49.764;9.796;2023-08-12T11:07:27;8.10;;;3.07;;
5900;SDS011;2976;49.764;9.796;2023-08-12T11:10:03;3.70;;;3.40;;
5900;SDS011;2976;49.764;9.796;2023-08-12T11:12:32;7.47;;;3.60;;
5900;SDS011;2976;49.764;9.796;2023-08-12T11:15:00;3.60;;;2.60;;
5900;SDS011;2976;49.764;9.796;2023-08-12T11:19:59;2.97;;;2.67;;
5900;SDS011;2976;49.764;9.796;2023-08-12T11:22:26;3.57;;;3.27;;
5900;SDS011;2976;49.764;9.796;2023-08-12T11:24:52;3.30;;;3.00;;
5900;SDS011;2976;49.764;9.796;2023-08-12T11:27:18;4.37;;;2.90;;
5900;SDS011;2976;49.764;9.796;2023-08-12T11:29:43;2.93;;;2.73;;
5900;SDS011;2976;49.764;9.796;2023-08-12T11:32:09;5.90;;;2.90;;
5900;SDS011;2976;49.764;9.796;2023-08-12T11:34:35;3.87;;;3.40;;
5900;SDS011;2976;49.764;9.796;2023-08-12T11:37:02;10.17;;;3.27;;
5900;SDS011;2976;49.764;9.796;2023-08-12T11:39:28;2.90;;;2.70;;
5900;SDS011;2976;49.764;9.796;2023-08-12T11:41:53;4.43;;;3.07;;
5900;SDS011;2976;49.764;9.796;2023-08-12T11:44:22;2.63;;;2.43;;
5900;SDS011;2976;49.764;9.796;2023-08-12T11:46:48;4.13;;;2.70;;
5900;SDS011;2976;49.764;9.796;2023-08-12T11:49:14;4.70;;;3.53;;
5900;SDS011;2976;49.764;9.796;2023-08-12T11:51:40;4.00;;;2.70;;
5900;SDS011;2976;49.764;9.796;2023-08-12T11:54:07;4.90;;;2.90;;
5900;SDS011;2976;49.764;9.796;2023-08-12T11:56:33;2.87;;;2.67;;
5900;SDS011;2976;49.764;9.796;2023-08-12T11:58:59;3.13;;;2.77;;
5900;SDS011;2976;49.764;9.796;2023-08-12T12:01:24;2.67;;;2.47;;
5900;SDS011;2976;49.764;9.796;2023-08-12T12:03:53;3.43;;;3.13;;
5900;SDS011;2976;49.764;9.796;2023-08-12T12:06:32;3.07;;;2.87;;
5900;SDS011;2976;49.764;9.796;2023-08-12T12:09:02;3.70;;;2.90;;
5900;SDS011;2976;49.764;9.796;2023-08-12T12:11:30;3.53;;;3.23;;
5900;SDS011;2976;49.764;9.796;2023-08-12T12:13:59;4.73;;;3.40;;
5900;SDS011;2976;49.764;9.796;2023-08-12T12:16:35;5.90;;;3.27;;
5900;SDS011;2976;49.764;9.796;2023-08-12T12:19:11;3.17;;;2.97;;
5900;SDS011;2976;49.764;9.796;2023-08-12T12:21:45;9.97;;;3.30;;
5900;SDS011;2976;49.764;9.796;2023-08-12T12:24:15;5.17;;;2.67;;
5900;SDS011;2976;49.764;9.796;2023-08-12T12:26:42;6.80;;;1.77;;
5900;SDS011;2976;49.764;9.796;2023-08-12T12:29:09;4.70;;;2.40;;
5900;SDS011;2976;49.764;9.796;2023-08-12T12:31:36;10.60;;;4.80;;
5900;SDS011;2976;49.764;9.796;2023-08-12T12:34:02;7.10;;;3.30;;
5900;SDS011;2976;49.764;9.796;2023-08-12T12:36:31;2.83;;;2.50;;
5900;SDS011;2976;49.764;9.796;2023-08-12T12:38:58;2.23;;;1.90;;
5900;SDS011;2976;49.764;9.796;2023-08-12T12:41:24;6.73;;;3.37;;
5900;SDS011;2976;49.764;9.796;2023-08-12T12:43:50;3.57;;;2.60;;
5900;SDS011;2976;49.764;9.796;2023-08-12T12:46:15;5.27;;;2.67;;
5900;SDS011;2976;49.764;9.796;2023-08-12T12:48:41;6.37;;;3.03;;
5900;SDS011;2976;49.764;9.796;2023-08-12T12:51:07;5.10;;;3.20;;
5900;SDS011;2976;49.764;9.796;2023-08-12T12:53:33;5.03;;;3.40;;
5900;SDS011;2976;49.764;9.796;2023-08-12T12:55:59;3.10;;;2.80;;
5900;SDS011;2976;49.764;9.796;2023-08-12T12:58:29;6.90;;;3.33;;
5900;SDS011;2976;49.764;9.796;2023-08-12T13:00:56;5.43;;;3.50;;
5900;SDS011;2976;49.764;9.796;2023-08-12T13:03:21;7.70;;;3.53;;
5900;SDS011;2976;49.764;9.796;2023-08-12T13:05:47;7.80;;;3.77;;
5900;SDS011;2976;49.764;9.796;2023-08-12T13:08:12;8.70;;;4.60;;
5900;SDS011;2976;49.764;9.796;2023-08-12T13:10:38;9.07;;;4.80;;
5900;SDS011;2976;49.764;9.796;2023-08-12T13:13:03;5.83;;;3.53;;
5900;SDS011;2976;49.764;9.796;2023-08-12T13:15:29;10.13;;;4.07;;
5900;SDS011;2976;49.764;9.796;2023-08-12T13:17:55;8.13;;;4.97;;
5900;SDS011;2976;49.764;9.796;2023-08-12T13:20:21;5.57;;;3.70;;
5900;SDS011;2976;49.764;9.796;2023-08-12T13:22:46;6.30;;;4.27;;
5900;SDS011;2976;49.764;9.796;2023-08-12T13:25:12;8.63;;;4.90;;
5900;SDS011;2976;49.764;9.796;2023-08-12T13:27:37;6.57;;;3.70;;
5900;SDS011;2976;49.764;9.796;2023-08-12T13:30:03;6.47;;;4.47;;
5900;SDS011;2976;49.764;9.796;2023-08-12T13:32:30;6.17;;;4.10;;
5900;SDS011;2976;49.764;9.796;2023-08-12T13:34:55;5.73;;;4.07;;
5900;SDS011;2976;49.764;9.796;2023-08-12T13:37:21;5.63;;;4.33;;
5900;SDS011;2976;49.764;9.796;2023-08-12T13:39:46;5.27;;;4.27;;
5900;SDS011;2976;49.764;9.796;2023-08-12T13:42:12;7.13;;;4.57;;
5900;SDS011;2976;49.764;9.796;2023-08-12T13:44:37;5.30;;;3.10;;
5900;SDS011;2976;49.764;9.796;2023-08-12T13:47:03;3.60;;;3.30;;
5900;SDS011;2976;49.764;9.796;2023-08-12T13:49:28;4.70;;;3.10;;
5900;SDS011;2976;49.764;9.796;2023-08-12T13:51:54;3.40;;;3.00;;
5900;SDS011;2976;49.764;9.796;2023-08-12T13:54:19;4.73;;;2.90;;
5900;SDS011;2976;49.764;9.796;2023-08-12T13:56:45;2.93;;;2.60;;
5900;SDS011;2976;49.764;9.796;2023-08-12T13:59:11;3.00;;;1.90;;
5900;SDS011;2976;49.764;9.796;2023-08-12T14:01:36;4.37;;;2.60;;
5900;SDS011;2976;49.764;9.796;2023-08-12T14:04:03;3.60;;;2.30;;
5900;SDS011;2976;49.764;9.796;2023-08-12T14:06:29;2.00;;;1.90;;
5900;SDS011;2976;49.764;9.796;2023-08-12T14:08:54;4.80;;;2.00;;
5900;SDS011;2976;49.764;9.796;2023-08-12T14:11:20;4.83;;;2.03;;
5900;SDS011;2976;49.764;9.796;2023-08-12T14:13:45;3.20;;;2.40;;
5900;SDS011;2976;49.764;9.796;2023-08-12T14:16:11;2.70;;;2.20;;
5900;SDS011;2976;49.764;9.796;2023-08-12T14:18:37;6.50;;;2.77;;
5900;SDS011;2976;49.764;9.796;2023-08-12T14:21:03;3.80;;;2.37;;
5900;SDS011;2976;49.764;9.796;2023-08-12T14:23:29;5.57;;;2.37;;
5900;SDS011;2976;49.764;9.796;2023-08-12T14:25:54;4.37;;;2.40;;
5900;SDS011;2976;49.764;9.796;2023-08-12T14:28:20;4.53;;;2.10;;
5900;SDS011;2976;49.764;9.796;2023-08-12T14:30:45;3.70;;;2.87;;
5900;SDS011;2976;49.764;9.796;2023-08-12T14:33:11;3.23;;;2.30;;
5900;SDS011;2976;49.764;9.796;2023-08-12T14:35:36;2.57;;;2.40;;
5900;SDS011;2976;49.764;9.796;2023-08-12T14:38:02;4.77;;;1.97;;
5900;SDS011;2976;49.764;9.796;2023-08-12T14:40:28;3.87;;;2.10;;
5900;SDS011;2976;49.764;9.796;2023-08-12T14:42:54;1.53;;;1.33;;
5900;SDS011;2976;49.764;9.796;2023-08-12T14:45:19;8.50;;;2.30;;
5900;SDS011;2976;49.764;9.796;2023-08-12T14:47:45;2.43;;;2.23;;
5900;SDS011;2976;49.764;9.796;2023-08-12T14:50:10;2.30;;;2.10;;
5900;SDS011;2976;49.764;9.796;2023-08-12T14:52:36;5.47;;;2.37;;
5900;SDS011;2976;49.764;9.796;2023-08-12T14:55:02;2.37;;;1.70;;
5900;SDS011;2976;49.764;9.796;2023-08-12T14:57:28;3.17;;;1.80;;
5900;SDS011;2976;49.764;9.796;2023-08-12T14:59:53;2.20;;;1.60;;
5900;SDS011;2976;49.764;9.796;2023-08-12T15:02:22;3.27;;;1.73;;
5900;SDS011;2976;49.764;9.796;2023-08-12T15:04:48;1.97;;;1.80;;
5900;SDS011;2976;49.764;9.796;2023-08-12T15:07:14;1.80;;;1.70;;
5900;SDS011;2976;49.764;9.796;2023-08-12T15:09:41;2.23;;;1.70;;
5900;SDS011;2976;49.764;9.796;2023-08-12T15:12:06;4.07;;;1.50;;
5900;SDS011;2976;49.764;9.796;2023-08-12T15:14:32;2.70;;;1.73;;
5900;SDS011;2976;49.764;9.796;2023-08-12T15:16:58;4.20;;;1.50;;
5900;SDS011;2976;49.764;9.796;2023-08-12T15:19:23;3.17;;;2.10;;